Time;durP1;ratioP1;P1;durP2;ratioP2;P2;SDS_P1;SDS_P2;PMS_P1;PMS_P2;Temp;Humidity;BMP_temperature;BMP_pressure;BME280_temperature;BME280_humidity;BME280_pressure;Samples;Min_cycle;Max_cycle;Signal;HPM_P1;HPM_P2
2021/03/17 00:00:22;;;;;;;9.48;6.35;;;4.10;99.90;;;;;;5052172;28;20712;-39
2021/03/17 00:02:49;;;;;;;9.02;6.32;;;4.10;99.90;;;;;;5052250;28;20235;-39
2021/03/17 00:05:19;;;;;;;12.60;9.07;;;4.00;99.90;;;;;;5052265;28;20244;-39
2021/03/17 00:07:47;;;;;;;9.88;5.90;;;4.00;99.90;;;;;;5052021;28;20299;-39
2021/03/17 00:10:15;;;;;;;8.30;6.18;;;3.90;99.90;;;;;;5052260;28;20208;-39
2021/03/17 00:12:42;;;;;;;9.90;7.75;;;3.90;99.90;;;;;;5051984;28;20239;-40
2021/03/17 00:15:10;;;;;;;8.73;6.53;;;4.00;99.90;;;;;;5051972;28;20674;-40
2021/03/17 00:17:37;;;;;;;7.57;6.25;;;4.00;99.90;;;;;;5051983;28;20212;-40
2021/03/17 00:20:07;;;;;;;6.72;5.32;;;4.10;99.90;;;;;;5051851;28;20263;-39
2021/03/17 00:22:34;;;;;;;8.43;5.70;;;4.10;99.90;;;;;;5051815;28;20663;-40
2021/03/17 00:25:03;;;;;;;8.15;5.95;;;4.10;99.90;;;;;;5051910;28;20524;-39
2021/03/17 00:27:30;;;;;;;6.57;5.10;;;4.10;99.90;;;;;;5051690;28;20239;-39
2021/03/17 00:29:56;;;;;;;6.35;5.22;;;4.10;99.90;;;;;;5051558;28;20240;-40
2021/03/17 00:32:24;;;;;;;6.85;6.10;;;4.10;99.90;;;;;;5051414;28;20257;-40
2021/03/17 00:34:51;;;;;;;6.85;5.70;;;4.10;99.90;;;;;;5051333;28;20663;-39
2021/03/17 00:37:18;;;;;;;9.30;6.32;;;4.10;99.90;;;;;;5051024;28;20234;-39
2021/03/17 00:39:45;;;;;;;6.43;5.75;;;4.00;99.90;;;;;;5051484;28;20299;-39
2021/03/17 00:42:13;;;;;;;7.13;6.35;;;4.10;99.90;;;;;;5051385;28;20236;-39
2021/03/17 00:44:40;;;;;;;6.50;5.45;;;4.10;99.90;;;;;;5051259;28;20263;-39
2021/03/17 00:47:07;;;;;;;9.32;6.22;;;4.20;99.90;;;;;;5051000;28;20250;-40
2021/03/17 00:49:34;;;;;;;7.38;5.63;;;4.20;99.90;;;;;;5051436;28;20208;-39
2021/03/17 00:52:01;;;;;;;6.93;6.00;;;4.20;99.90;;;;;;5051455;28;20534;-39
2021/03/17 00:54:28;;;;;;;7.22;5.80;;;4.20;99.90;;;;;;5051453;28;20287;-39
2021/03/17 00:56:55;;;;;;;10.48;5.97;;;4.20;99.90;;;;;;5051204;28;20709;-39
2021/03/17 00:59:22;;;;;;;8.07;5.28;;;4.20;99.90;;;;;;5051208;28;20230;-39
2021/03/17 01:01:49;;;;;;;8.13;6.47;;;4.20;99.90;;;;;;5050918;28;20769;-39
2021/03/17 01:04:16;;;;;;;7.65;6.88;;;4.20;99.90;;;;;;5051233;28;20699;-39
2021/03/17 01:06:43;;;;;;;9.05;5.93;;;4.20;99.90;;;;;;5051214;28;20303;-39
2021/03/17 01:09:11;;;;;;;12.48;6.70;;;4.10;99.90;;;;;;5050716;28;20208;-39
2021/03/17 01:11:38;;;;;;;7.68;6.72;;;4.20;99.90;;;;;;5051254;28;20220;-39
2021/03/17 01:14:05;;;;;;;8.70;7.13;;;4.10;99.90;;;;;;5051028;28;20204;-41
2021/03/17 01:16:32;;;;;;;7.57;6.03;;;4.00;99.90;;;;;;5051169;28;20298;-40
2021/03/17 01:19:00;;;;;;;6.95;6.18;;;4.00;99.90;;;;;;5051003;28;20211;-40
2021/03/17 01:21:26;;;;;;;10.37;6.33;;;4.00;99.90;;;;;;5051249;28;20306;-40
2021/03/17 01:23:53;;;;;;;8.65;7.30;;;4.00;99.90;;;;;;5051112;28;20698;-40
2021/03/17 01:26:20;;;;;;;7.63;6.85;;;4.10;99.90;;;;;;5051031;28;20212;-39
2021/03/17 01:28:48;;;;;;;7.30;6.60;;;4.00;99.90;;;;;;5051022;28;20229;-38
2021/03/17 01:31:15;;;;;;;7.90;7.10;;;4.00;99.90;;;;;;5050342;28;20626;-38
2021/03/17 01:33:43;;;;;;;8.55;7.00;;;4.10;99.90;;;;;;5050881;28;20721;-38
2021/03/17 01:36:10;;;;;;;8.18;7.05;;;4.00;99.90;;;;;;5050817;28;20211;-38
2021/03/17 01:38:37;;;;;;;8.02;6.75;;;4.10;99.90;;;;;;5050988;28;20643;-38
2021/03/17 01:41:04;;;;;;;8.07;7.20;;;4.10;99.90;;;;;;5050886;28;20270;-38
2021/03/17 01:43:31;;;;;;;7.32;6.60;;;4.20;99.90;;;;;;5050750;28;20755;-39
2021/03/17 01:45:58;;;;;;;8.00;7.25;;;4.10;99.90;;;;;;5050922;28;20212;-38
2021/03/17 01:48:26;;;;;;;10.73;7.45;;;4.10;99.90;;;;;;5052014;28;20258;-38
2021/03/17 01:50:56;;;;;;;7.75;7.05;;;4.10;99.90;;;;;;5054830;28;20246;-38
2021/03/17 01:53:27;;;;;;;10.98;7.07;;;4.10;99.90;;;;;;5054744;28;20211;-38
2021/03/17 01:55:55;;;;;;;7.68;6.28;;;4.10;99.90;;;;;;5054499;28;20701;-38
2021/03/17 01:58:23;;;;;;;8.18;6.40;;;4.20;99.90;;;;;;5054376;28;20758;-38
2021/03/17 02:00:50;;;;;;;7.00;6.30;;;4.10;99.90;;;;;;5054515;28;20298;-38
2021/03/17 02:03:18;;;;;;;10.32;6.47;;;4.10;99.90;;;;;;5054595;28;20240;-38
2021/03/17 02:05:48;;;;;;;8.00;6.28;;;4.20;99.90;;;;;;5054439;28;20235;-38
2021/03/17 02:08:18;;;;;;;8.27;6.35;;;4.10;99.90;;;;;;5054361;28;20235;-38
2021/03/17 02:10:46;;;;;;;7.75;6.28;;;4.10;99.90;;;;;;5054351;28;20214;-38
2021/03/17 02:13:30;;;;;;;8.18;6.88;;;4.00;99.90;;;;;;5054059;28;20295;-39
2021/03/17 02:16:12;;;;;;;7.40;6.70;;;4.00;99.90;;;;;;5054474;28;20624;-39
2021/03/17 02:18:47;;;;;;;8.60;6.65;;;4.00;99.90;;;;;;5054159;28;20234;-39
2021/03/17 02:21:17;;;;;;;7.15;6.45;;;4.10;99.90;;;;;;5054309;28;20581;-39
2021/03/17 02:23:56;;;;;;;8.15;6.93;;;4.10;99.90;;;;;;5054309;28;20228;-40
2021/03/17 02:26:58;;;;;;;9.52;8.32;;;4.00;99.90;;;;;;5054047;28;20290;-39
2021/03/17 02:30:03;;;;;;;8.70;7.80;;;4.10;99.90;;;;;;5053905;28;20246;-39
2021/03/17 02:32:54;;;;;;;8.15;7.35;;;4.00;99.90;;;;;;5034050;28;20230;-39
2021/03/17 02:35:27;;;;;;;8.45;7.65;;;4.00;99.90;;;;;;5053781;28;20222;-39
2021/03/17 02:37:55;;;;;;;8.25;7.55;;;4.00;99.90;;;;;;5054004;28;20214;-39
2021/03/17 02:40:28;;;;;;;8.15;7.25;;;4.00;99.90;;;;;;5053567;28;20307;-38
2021/03/17 02:42:59;;;;;;;9.50;8.60;;;4.00;99.90;;;;;;5053706;28;20358;-39
2021/03/17 02:45:39;;;;;;;10.73;7.70;;;4.00;99.90;;;;;;5053795;28;20302;-39
2021/03/17 02:48:13;;;;;;;9.70;8.75;;;4.00;99.90;;;;;;5053412;28;20279;-39
2021/03/17 02:50:45;;;;;;;8.68;7.82;;;4.00;99.90;;;;;;5053679;28;20295;-39
2021/03/17 02:53:14;;;;;;;8.77;7.90;;;3.90;99.90;;;;;;5053720;28;20295;-39
2021/03/17 02:55:46;;;;;;;10.30;9.23;;;3.90;99.90;;;;;;5053246;28;20208;-39
2021/03/17 02:58:13;;;;;;;9.07;8.27;;;3.80;99.90;;;;;;5053554;28;20215;-39
2021/03/17 03:00:41;;;;;;;10.45;9.45;;;3.80;99.90;;;;;;5053148;28;20658;-39
2021/03/17 03:03:11;;;;;;;8.75;7.95;;;3.80;99.90;;;;;;5053314;28;20312;-39
2021/03/17 03:05:39;;;;;;;9.05;8.15;;;3.80;99.90;;;;;;5053362;28;20685;-39
2021/03/17 03:08:09;;;;;;;9.35;8.35;;;3.80;99.90;;;;;;5053493;28;20255;-39
2021/03/17 03:10:38;;;;;;;8.70;7.88;;;3.70;99.90;;;;;;5053341;28;20299;-39
2021/03/17 03:13:06;;;;;;;9.40;8.38;;;3.70;99.90;;;;;;5053315;28;20705;-39
2021/03/17 03:15:35;;;;;;;8.07;7.38;;;3.80;99.90;;;;;;5053353;28;20243;-39
2021/03/17 03:18:04;;;;;;;8.18;7.38;;;3.70;99.90;;;;;;5053222;28;20207;-39
2021/03/17 03:20:34;;;;;;;9.27;7.38;;;3.70;99.90;;;;;;5053074;28;20211;-39
2021/03/17 03:23:03;;;;;;;8.95;8.05;;;3.70;99.90;;;;;;5053037;28;20409;-38
2021/03/17 03:25:31;;;;;;;8.67;7.90;;;3.70;99.90;;;;;;5052888;28;20211;-38
2021/03/17 03:28:10;;;;;;;7.75;6.95;;;3.70;99.90;;;;;;5053180;28;20295;-39
2021/03/17 03:30:40;;;;;;;8.48;7.57;;;3.70;99.90;;;;;;5052899;28;20758;-38
2021/03/17 03:33:07;;;;;;;8.65;7.78;;;3.70;99.90;;;;;;5052861;28;20291;-38
2021/03/17 03:35:35;;;;;;;9.10;8.20;;;3.70;99.90;;;;;;5052807;28;20215;-38
2021/03/17 03:38:04;;;;;;;9.55;8.73;;;3.70;99.90;;;;;;5052638;28;20210;-39
2021/03/17 03:40:32;;;;;;;10.13;9.13;;;3.80;99.90;;;;;;5052988;28;20315;-38
2021/03/17 03:43:00;;;;;;;10.57;9.48;;;3.80;99.90;;;;;;5052752;28;20212;-39
2021/03/17 03:45:27;;;;;;;8.75;7.85;;;3.80;99.90;;;;;;5052553;28;20208;-39
2021/03/17 03:47:56;;;;;;;9.02;8.15;;;3.70;99.90;;;;;;5052273;28;20244;-39
2021/03/17 03:50:24;;;;;;;9.77;8.88;;;3.80;99.90;;;;;;5052231;28;20706;-39
2021/03/17 03:53:01;;;;;;;8.93;8.10;;;3.70;99.90;;;;;;5053619;28;20212;-39
2021/03/17 03:55:35;;;;;;;9.98;8.90;;;3.70;99.90;;;;;;5052738;28;20649;-40
2021/03/17 03:58:07;;;;;;;10.27;9.27;;;3.60;99.90;;;;;;5052496;28;20250;-39
2021/03/17 04:00:39;;;;;;;9.80;8.90;;;3.60;99.90;;;;;;5052362;28;20265;-39
2021/03/17 04:03:08;;;;;;;10.63;9.60;;;3.60;99.90;;;;;;5052269;28;20212;-39
2021/03/17 04:05:38;;;;;;;10.00;9.10;;;3.70;99.90;;;;;;5052577;28;20558;-39
2021/03/17 04:08:09;;;;;;;10.00;9.02;;;3.70;99.90;;;;;;5051970;28;20683;-39
2021/03/17 04:10:38;;;;;;;9.97;8.97;;;3.70;99.90;;;;;;5051766;28;20775;-39
2021/03/17 04:13:07;;;;;;;10.68;9.65;;;3.70;99.90;;;;;;5052115;28;20616;-40
2021/03/17 04:15:38;;;;;;;10.52;9.40;;;3.70;99.90;;;;;;5052111;28;20212;-40
2021/03/17 04:18:12;;;;;;;11.50;10.05;;;3.70;99.90;;;;;;5052282;28;20211;-40
2021/03/17 04:20:43;;;;;;;11.38;10.15;;;3.70;99.90;;;;;;5051944;28;20729;-39
2021/03/17 04:23:11;;;;;;;10.20;9.20;;;3.70;99.90;;;;;;5052004;28;20494;-40
2021/03/17 04:25:44;;;;;;;11.15;8.85;;;3.60;99.90;;;;;;5052019;28;20326;-40
2021/03/17 04:28:15;;;;;;;10.50;9.50;;;3.60;99.90;;;;;;5051740;28;20207;-40
2021/03/17 04:30:44;;;;;;;10.65;9.55;;;3.50;99.90;;;;;;5052134;28;20295;-40
2021/03/17 04:33:12;;;;;;;10.20;8.97;;;3.60;99.90;;;;;;5052025;28;20239;-40
2021/03/17 04:35:41;;;;;;;12.02;10.50;;;3.60;99.90;;;;;;5051747;28;20208;-39
2021/03/17 04:38:10;;;;;;;10.65;9.60;;;3.60;99.90;;;;;;5051753;28;20250;-40
2021/03/17 04:40:38;;;;;;;11.43;10.25;;;3.70;99.90;;;;;;5051602;28;20701;-41
2021/03/17 04:43:06;;;;;;;10.57;9.57;;;3.70;99.90;;;;;;5051490;28;20291;-40
2021/03/17 04:45:34;;;;;;;12.98;10.88;;;3.70;99.90;;;;;;5051836;28;20235;-39
2021/03/17 04:48:03;;;;;;;12.65;10.27;;;3.70;99.90;;;;;;5051616;28;20279;-43
2021/03/17 04:50:30;;;;;;;11.60;10.50;;;3.70;99.90;;;;;;5052192;28;20204;-43
2021/03/17 04:52:58;;;;;;;11.95;10.75;;;3.70;99.90;;;;;;5051699;28;20297;-42
2021/03/17 04:55:26;;;;;;;12.38;11.07;;;3.70;99.90;;;;;;5051570;28;20664;-41
2021/03/17 04:57:54;;;;;;;12.18;10.98;;;3.80;99.90;;;;;;5051561;28;20208;-41
2021/03/17 05:00:23;;;;;;;11.38;10.27;;;3.80;99.90;;;;;;5051601;28;20252;-41
2021/03/17 05:02:54;;;;;;;12.60;11.07;;;3.80;99.90;;;;;;5051218;28;20211;-41
2021/03/17 05:05:23;;;;;;;11.68;10.50;;;3.80;99.90;;;;;;5051196;28;20232;-41
2021/03/17 05:07:53;;;;;;;13.70;11.43;;;3.80;99.90;;;;;;5051466;28;20590;-41
2021/03/17 05:10:21;;;;;;;14.02;12.18;;;3.80;99.90;;;;;;5051608;28;20286;-40
2021/03/17 05:12:48;;;;;;;13.40;11.93;;;3.80;99.90;;;;;;5051569;28;20295;-41
2021/03/17 05:15:16;;;;;;;15.00;11.98;;;3.80;99.90;;;;;;5051545;28;20200;-41
2021/03/17 05:17:47;;;;;;;14.40;11.75;;;3.90;99.90;;;;;;5051329;28;20366;-41
2021/03/17 05:20:17;;;;;;;15.70;12.70;;;3.80;99.90;;;;;;5051589;28;20279;-41
2021/03/17 05:22:46;;;;;;;13.75;12.23;;;3.80;99.90;;;;;;5053513;28;20211;-41
2021/03/17 05:25:15;;;;;;;13.95;11.23;;;3.80;99.90;;;;;;5055141;28;20282;-41
2021/03/17 05:27:45;;;;;;;13.60;12.20;;;3.80;99.90;;;;;;5055434;28;20730;-41
2021/03/17 05:30:14;;;;;;;15.17;12.27;;;3.80;99.90;;;;;;5055281;28;20220;-42
2021/03/17 05:32:42;;;;;;;14.65;12.30;;;3.80;99.90;;;;;;5055194;28;20265;-41
2021/03/17 05:35:11;;;;;;;16.58;13.65;;;3.80;99.90;;;;;;5055322;28;20199;-41
2021/03/17 05:37:39;;;;;;;13.90;12.43;;;3.80;99.90;;;;;;5055330;28;20311;-41
2021/03/17 05:40:09;;;;;;;14.10;12.52;;;3.80;99.90;;;;;;5055381;28;20211;-41
2021/03/17 05:42:38;;;;;;;15.90;13.10;;;3.80;99.90;;;;;;5055249;28;20215;-41
2021/03/17 05:45:10;;;;;;;18.23;14.77;;;3.80;99.90;;;;;;5054864;28;20263;-40
2021/03/17 05:47:38;;;;;;;18.25;13.82;;;3.80;99.90;;;;;;5054581;28;20679;-40
2021/03/17 05:50:08;;;;;;;17.13;13.83;;;3.80;99.90;;;;;;5054947;28;20216;-39
2021/03/17 05:52:36;;;;;;;16.10;13.80;;;3.90;99.90;;;;;;5055037;28;20212;-41
2021/03/17 05:55:04;;;;;;;18.80;14.93;;;3.90;99.90;;;;;;5054768;28;20208;-41
2021/03/17 05:57:31;;;;;;;17.35;13.82;;;3.90;99.90;;;;;;5054825;28;20207;-41
2021/03/17 05:59:58;;;;;;;16.85;14.45;;;3.90;99.90;;;;;;5054912;28;20238;-40
2021/03/17 06:02:25;;;;;;;17.48;14.52;;;3.90;99.90;;;;;;5054847;28;20203;-40
2021/03/17 06:04:53;;;;;;;20.25;15.43;;;3.90;99.90;;;;;;5054630;28;20289;-39
2021/03/17 06:07:24;;;;;;;21.45;15.65;;;3.90;99.90;;;;;;5054410;28;20212;-40
2021/03/17 06:09:56;;;;;;;16.88;14.45;;;3.90;99.90;;;;;;5054576;28;20682;-41
2021/03/17 06:12:23;;;;;;;19.15;15.48;;;3.90;99.90;;;;;;5054874;28;20235;-40
2021/03/17 06:14:51;;;;;;;18.67;16.13;;;3.90;99.90;;;;;;5054438;28;20439;-40
2021/03/17 06:17:20;;;;;;;19.63;15.10;;;3.90;99.90;;;;;;5054433;28;20216;-39
2021/03/17 06:19:53;;;;;;;20.53;16.20;;;3.90;99.90;;;;;;5055743;28;20354;-40
2021/03/17 06:22:20;;;;;;;25.42;15.10;;;3.90;99.90;;;;;;5054425;28;20204;-39
2021/03/17 06:24:48;;;;;;;21.80;16.65;;;3.90;99.90;;;;;;5054152;28;20374;-39
2021/03/17 06:27:16;;;;;;;39.47;28.65;;;4.00;99.90;;;;;;5054368;28;20208;-40
2021/03/17 06:29:42;;;;;;;30.80;24.00;;;4.00;99.90;;;;;;5054330;28;20208;-39
2021/03/17 06:32:10;;;;;;;46.20;36.53;;;4.10;99.90;;;;;;5054030;28;20212;-40
2021/03/17 06:34:46;;;;;;;30.27;23.67;;;4.10;99.90;;;;;;5053525;28;20204;-40
2021/03/17 06:37:13;;;;;;;19.95;15.95;;;4.20;99.90;;;;;;5053968;28;20229;-40
2021/03/17 06:39:40;;;;;;;20.37;15.97;;;4.20;99.90;;;;;;5054136;28;20204;-40
2021/03/17 06:42:09;;;;;;;20.90;16.73;;;4.20;99.90;;;;;;5053872;28;20235;-41
2021/03/17 06:44:37;;;;;;;20.47;17.07;;;4.30;99.90;;;;;;5053711;28;20220;-41
2021/03/17 06:47:11;;;;;;;19.33;15.85;;;4.40;99.90;;;;;;5053839;28;20667;-41
2021/03/17 06:49:40;;;;;;;22.80;17.37;;;4.50;99.90;;;;;;5053461;28;20273;-41
2021/03/17 06:52:38;;;;;;;20.40;17.17;;;4.60;99.90;;;;;;5053656;28;20307;-41
2021/03/17 06:55:13;;;;;;;21.83;17.25;;;4.80;99.90;;;;;;5011689;28;20684;-41
2021/03/17 06:57:42;;;;;;;21.85;17.23;;;5.00;99.90;;;;;;5046602;28;20670;-42
2021/03/17 07:00:31;;;;;;;19.67;15.75;;;5.10;99.90;;;;;;5053406;28;20232;-41
2021/03/17 07:03:01;;;;;;;20.40;16.25;;;5.10;99.90;;;;;;5053350;28;20303;-42
2021/03/17 07:05:39;;;;;;;20.23;14.68;;;5.20;99.90;;;;;;5053404;28;20289;-41
2021/03/17 07:08:07;;;;;;;16.00;14.10;;;5.20;99.90;;;;;;5053242;28;20302;-41
2021/03/17 07:10:57;;;;;;;21.00;14.85;;;5.10;99.90;;;;;;5053239;28;20219;-41
2021/03/17 07:13:25;;;;;;;18.27;14.35;;;5.00;99.90;;;;;;5053351;28;20208;-41
2021/03/17 07:15:55;;;;;;;17.88;13.70;;;4.90;99.90;;;;;;5053226;28;20635;-41
2021/03/17 07:18:25;;;;;;;28.05;21.75;;;4.70;99.90;;;;;;5053174;28;20212;-41
2021/03/17 07:20:55;;;;;;;50.60;45.22;;;4.70;99.90;;;;;;5052809;28;20725;-40
2021/03/17 07:23:33;;;;;;;21.70;18.25;;;4.80;99.90;;;;;;5053230;28;20254;-39
2021/03/17 07:26:21;;;;;;;20.40;16.92;;;4.90;99.90;;;;;;5052931;28;20228;-41
2021/03/17 07:29:18;;;;;;;19.23;14.90;;;5.10;99.90;;;;;;5052941;28;20212;-41
2021/03/17 07:31:48;;;;;;;19.10;16.20;;;5.00;99.90;;;;;;5048772;28;20291;-40
2021/03/17 07:34:21;;;;;;;18.00;14.37;;;5.00;99.90;;;;;;5052883;28;20208;-40
2021/03/17 07:36:51;;;;;;;15.50;13.13;;;4.90;99.90;;;;;;5052966;28;20216;-40
2021/03/17 07:39:21;;;;;;;15.90;11.87;;;4.50;99.90;;;;;;5052889;28;20223;-40
2021/03/17 07:41:50;;;;;;;11.43;9.18;;;4.10;99.90;;;;;;5052495;28;20261;-39
2021/03/17 07:44:17;;;;;;;11.65;9.30;;;3.80;99.90;;;;;;5052746;28;20663;-39
2021/03/17 07:46:49;;;;;;;10.48;7.10;;;3.70;99.90;;;;;;5051555;28;20247;-38
2021/03/17 07:49:22;;;;;;;7.70;6.30;;;3.60;99.90;;;;;;5052558;28;20232;-41
2021/03/17 07:51:51;;;;;;;11.50;6.03;;;3.70;99.90;;;;;;5052380;28;20219;-40
2021/03/17 07:54:30;;;;;;;7.80;5.60;;;3.80;99.90;;;;;;5052295;28;20243;-39
2021/03/17 07:56:59;;;;;;;10.25;6.50;;;3.90;99.90;;;;;;5052610;28;20215;-39
2021/03/17 07:59:26;;;;;;;9.93;6.13;;;3.90;99.90;;;;;;5052508;28;20637;-40
2021/03/17 08:01:56;;;;;;;9.50;6.63;;;4.00;99.90;;;;;;5052322;28;20277;-40
2021/03/17 08:04:27;;;;;;;7.60;6.78;;;4.10;99.90;;;;;;5052219;28;20743;-39
2021/03/17 08:06:56;;;;;;;8.40;6.70;;;4.20;99.90;;;;;;5052265;28;20204;-39
2021/03/17 08:09:23;;;;;;;11.85;6.82;;;4.30;99.90;;;;;;5052158;28;20295;-39
2021/03/17 08:11:53;;;;;;;10.32;6.75;;;4.40;99.90;;;;;;5052305;28;20635;-38
2021/03/17 08:14:20;;;;;;;9.02;8.02;;;4.40;99.90;;;;;;5052071;28;20642;-38
2021/03/17 08:16:48;;;;;;;10.88;8.80;;;4.50;99.90;;;;;;5052321;28;20227;-40
2021/03/17 08:19:24;;;;;;;15.30;11.75;;;4.70;99.90;;;;;;5051984;28;20208;-41
2021/03/17 08:21:53;;;;;;;15.50;12.13;;;4.90;99.90;;;;;;5052478;28;20265;-41
2021/03/17 08:24:50;;;;;;;14.70;12.23;;;5.00;99.90;;;;;;5052011;28;20306;-41
2021/03/17 08:27:25;;;;;;;16.02;11.82;;;5.20;99.90;;;;;;5010360;28;20209;-40
2021/03/17 08:30:04;;;;;;;16.50;11.80;;;5.40;99.90;;;;;;5045155;28;20247;-40
2021/03/17 08:32:51;;;;;;;15.82;11.98;;;5.70;99.90;;;;;;5052258;28;20208;-40
2021/03/17 08:35:19;;;;;;;17.52;12.93;;;5.90;99.90;;;;;;5051896;28;20238;-42
2021/03/17 08:37:50;;;;;;;16.17;11.80;;;5.80;99.90;;;;;;5051497;28;20677;-41
2021/03/17 08:40:47;;;;;;;21.45;12.13;;;5.70;99.90;;;;;;5051967;28;20289;-41
2021/03/17 08:43:39;;;;;;;15.50;11.63;;;5.60;99.90;;;;;;5051840;28;20212;-41
2021/03/17 08:46:06;;;;;;;16.23;10.68;;;5.60;99.90;;;;;;5051518;28;20789;-41
2021/03/17 08:49:02;;;;;;;15.65;10.70;;;5.60;99.90;;;;;;5051436;28;20235;-41
2021/03/17 08:52:08;;;;;;;13.43;9.68;;;5.70;99.90;;;;;;5051502;28;20564;-41
2021/03/17 08:55:04;;;;;;;14.70;8.75;;;5.90;99.90;;;;;;5051562;28;20314;-45
2021/03/17 08:57:53;;;;;;;13.32;10.52;;;6.10;99.90;;;;;;5051374;28;20265;-41
2021/03/17 09:00:42;;;;;;;12.85;9.82;;;6.30;99.90;;;;;;5048555;28;20214;-39
2021/03/17 09:03:33;;;;;;;13.47;10.10;;;6.30;99.90;;;;;;5051590;28;20204;-38
2021/03/17 09:06:24;;;;;;;14.95;11.35;;;6.00;99.90;;;;;;5051416;28;20619;-39
2021/03/17 09:08:55;;;;;;;16.33;11.15;;;5.90;99.90;;;;;;5051642;28;20592;-38
2021/03/17 09:11:58;;;;;;;13.30;9.18;;;5.80;99.90;;;;;;5051368;28;20235;-40
2021/03/17 09:14:34;;;;;;;13.60;10.23;;;5.80;99.90;;;;;;5051394;28;20212;-40
2021/03/17 09:17:16;;;;;;;12.77;8.77;;;6.00;99.90;;;;;;5051417;28;20265;-40
2021/03/17 09:20:24;;;;;;;11.90;9.70;;;6.20;99.90;;;;;;5051205;28;20208;-39
2021/03/17 09:23:18;;;;;;;9.30;7.93;;;6.40;99.90;;;;;;5051282;28;20211;-39
2021/03/17 09:25:49;;;;;;;9.05;7.50;;;6.30;99.90;;;;;;5004812;28;20289;-39
2021/03/17 09:28:27;;;;;;;9.15;7.25;;;6.20;99.90;;;;;;5051107;28;20207;-39
2021/03/17 09:30:57;;;;;;;9.82;7.80;;;6.10;99.90;;;;;;5051089;28;20238;-38
2021/03/17 09:33:26;;;;;;;9.88;7.57;;;6.10;99.90;;;;;;5051297;28;20212;-38
2021/03/17 09:35:56;;;;;;;11.90;6.50;;;6.10;99.90;;;;;;5051036;28;20319;-39
2021/03/17 09:38:26;;;;;;;13.52;8.35;;;6.10;99.90;;;;;;5051084;28;20209;-39
2021/03/17 09:40:57;;;;;;;10.15;7.35;;;6.10;99.90;;;;;;5051106;28;20236;-39
2021/03/17 09:43:44;;;;;;;10.68;6.78;;;6.10;99.90;;;;;;5050851;28;20693;-39
2021/03/17 09:46:36;;;;;;;13.02;8.25;;;6.00;99.30;;;;;;5051014;28;20249;-38
2021/03/17 09:49:07;;;;;;;6.00;5.10;;;6.00;98.70;;;;;;5032102;28;20244;-39
2021/03/17 09:51:37;;;;;;;10.45;7.18;;;6.10;99.50;;;;;;5050809;28;20204;-38
2021/03/17 09:54:07;;;;;;;12.82;7.60;;;6.30;99.00;;;;;;5050568;28;20612;-39
2021/03/17 09:56:42;;;;;;;8.75;5.60;;;6.60;98.30;;;;;;5050887;28;20742;-39
2021/03/17 09:59:18;;;;;;;7.75;5.75;;;6.80;97.70;;;;;;5050806;28;20218;-39
2021/03/17 10:01:54;;;;;;;7.50;4.75;;;6.70;97.70;;;;;;5050931;28;20269;-41
2021/03/17 10:04:23;;;;;;;3.90;3.30;;;6.50;96.70;;;;;;5050745;28;20216;-40
2021/03/17 10:06:50;;;;;;;8.75;5.00;;;6.20;97.20;;;;;;5050795;28;20204;-41
2021/03/17 10:09:18;;;;;;;12.13;7.43;;;6.00;97.60;;;;;;5051484;28;20732;-40
2021/03/17 10:11:46;;;;;;;8.85;6.50;;;5.80;98.10;;;;;;5054193;28;20610;-40
2021/03/17 10:14:14;;;;;;;9.30;6.03;;;5.80;97.90;;;;;;5054221;28;20204;-39
2021/03/17 10:16:42;;;;;;;9.95;5.25;;;5.70;98.10;;;;;;5053587;28;20696;-39
2021/03/17 10:19:12;;;;;;;10.20;5.32;;;5.80;98.40;;;;;;5053869;28;20218;-39
2021/03/17 10:21:52;;;;;;;10.50;6.15;;;5.90;97.50;;;;;;5053658;28;20583;-38
2021/03/17 10:24:33;;;;;;;10.30;6.20;;;6.00;97.20;;;;;;5053719;28;20306;-38
2021/03/17 10:27:02;;;;;;;7.32;4.72;;;6.20;97.50;;;;;;5053859;28;20219;-39
2021/03/17 10:29:29;;;;;;;6.30;4.72;;;6.30;97.50;;;;;;5053701;28;20222;-40
2021/03/17 10:31:56;;;;;;;6.32;5.28;;;6.40;97.50;;;;;;5053594;28;20250;-40
2021/03/17 10:34:26;;;;;;;6.18;4.20;;;6.40;97.40;;;;;;5053860;28;20212;-40
2021/03/17 10:36:54;;;;;;;5.45;4.55;;;6.40;97.20;;;;;;5053794;28;20365;-39
2021/03/17 10:39:29;;;;;;;8.30;5.40;;;6.40;97.60;;;;;;5053458;28;20208;-40
2021/03/17 10:41:57;;;;;;;25.83;16.48;;;6.60;97.00;;;;;;5053935;28;20212;-40
2021/03/17 10:44:27;;;;;;;24.13;12.07;;;6.90;97.00;;;;;;5053469;28;20212;-40
2021/03/17 10:47:08;;;;;;;6.53;5.30;;;7.20;96.50;;;;;;5053436;28;20593;-40
2021/03/17 10:49:37;;;;;;;8.57;4.43;;;7.40;96.20;;;;;;5053774;28;20204;-41
2021/03/17 10:52:08;;;;;;;7.75;4.07;;;7.40;96.10;;;;;;5053503;28;20210;-40
2021/03/17 10:54:36;;;;;;;8.82;3.90;;;7.30;96.30;;;;;;5053474;28;20541;-40
2021/03/17 10:57:20;;;;;;;9.77;4.10;;;7.20;96.40;;;;;;5053696;28;20215;-40
2021/03/17 10:59:48;;;;;;;5.57;3.50;;;7.20;96.60;;;;;;5053419;28;20244;-40
2021/03/17 11:02:20;;;;;;;7.70;3.92;;;7.20;96.60;;;;;;5053921;28;20262;-39
2021/03/17 11:05:22;;;;;;;6.57;4.15;;;7.20;96.40;;;;;;5071712;28;20656;-40
2021/03/17 11:08:14;;;;;;;7.30;4.05;;;7.30;96.10;;;;;;4990438;28;20281;-39
2021/03/17 11:10:53;;;;;;;5.18;3.63;;;7.30;96.00;;;;;;5054313;28;20674;-40
2021/03/17 11:13:37;;;;;;;5.15;3.67;;;7.50;95.90;;;;;;5073460;28;20203;-39
2021/03/17 11:16:08;;;;;;;5.50;3.22;;;7.50;95.50;;;;;;5073332;28;20549;-40
2021/03/17 11:18:38;;;;;;;11.10;4.82;;;7.60;95.60;;;;;;5073393;28;20207;-40
2021/03/17 11:21:07;;;;;;;5.15;3.28;;;7.50;95.20;;;;;;5073228;28;20203;-40
2021/03/17 11:23:36;;;;;;;5.22;3.88;;;7.40;95.50;;;;;;5073346;28;20222;-40
2021/03/17 11:26:04;;;;;;;5.68;3.67;;;7.20;95.80;;;;;;5073042;28;20231;-40
2021/03/17 11:28:38;;;;;;;10.15;4.25;;;7.20;95.90;;;;;;5072970;28;20641;-39
2021/03/17 11:31:07;;;;;;;4.53;3.30;;;7.30;95.70;;;;;;5073266;28;20265;-39
2021/03/17 11:33:35;;;;;;;5.30;3.00;;;7.50;95.50;;;;;;5073116;28;20723;-39
2021/03/17 11:36:05;;;;;;;5.70;3.88;;;7.80;94.90;;;;;;5072879;28;20210;-39
2021/03/17 11:38:33;;;;;;;7.85;5.57;;;8.10;94.20;;;;;;5073493;28;20211;-40
2021/03/17 11:41:01;;;;;;;4.07;3.25;;;8.30;93.50;;;;;;5072866;28;20276;-39
2021/03/17 11:43:31;;;;;;;4.40;2.97;;;8.50;92.80;;;;;;5072564;28;20296;-40
2021/03/17 11:46:00;;;;;;;3.85;3.05;;;8.70;92.80;;;;;;5072857;28;20227;-40
2021/03/17 11:48:30;;;;;;;6.90;3.10;;;8.80;92.40;;;;;;5072615;28;20282;-40
2021/03/17 11:51:00;;;;;;;5.25;3.42;;;8.90;92.20;;;;;;5072691;28;20211;-40
2021/03/17 11:53:27;;;;;;;4.20;3.00;;;9.00;92.20;;;;;;5073209;28;20203;-41
2021/03/17 11:55:55;;;;;;;3.35;2.70;;;9.10;91.90;;;;;;5072527;28;20290;-40
2021/03/17 11:58:22;;;;;;;5.45;3.55;;;9.20;91.00;;;;;;5072693;28;20235;-40
2021/03/17 12:00:49;;;;;;;7.72;4.90;;;9.20;90.50;;;;;;5072867;28;20266;-40
2021/03/17 12:03:37;;;;;;;5.80;3.58;;;9.00;90.10;;;;;;5072775;28;20234;-41
2021/03/17 12:06:05;;;;;;;4.93;4.00;;;8.60;89.10;;;;;;5072194;28;20644;-41
2021/03/17 12:08:32;;;;;;;3.72;3.30;;;8.40;89.80;;;;;;5072575;28;20234;-41
2021/03/17 12:11:14;;;;;;;4.65;2.95;;;8.30;90.10;;;;;;5072276;28;20272;-40
2021/03/17 12:13:41;;;;;;;4.50;2.70;;;8.20;90.20;;;;;;5072415;28;20258;-40
2021/03/17 12:16:08;;;;;;;6.55;5.72;;;8.20;89.40;;;;;;5072329;28;20287;-41
2021/03/17 12:18:37;;;;;;;6.85;4.28;;;8.00;87.60;;;;;;5071941;28;20204;-41
2021/03/17 12:21:04;;;;;;;5.03;2.45;;;8.00;86.60;;;;;;5072324;28;20211;-41
2021/03/17 12:23:31;;;;;;;4.97;2.58;;;8.00;87.50;;;;;;5072240;28;20297;-41
2021/03/17 12:25:58;;;;;;;5.57;3.72;;;8.10;86.50;;;;;;5071928;28;20223;-41
2021/03/17 12:28:25;;;;;;;3.90;3.50;;;8.20;85.10;;;;;;5072124;28;20298;-41
2021/03/17 12:30:52;;;;;;;6.28;5.75;;;8.30;84.30;;;;;;5072129;28;20216;-41
2021/03/17 12:33:19;;;;;;;3.80;2.50;;;8.30;82.90;;;;;;5071301;28;20819;-40
2021/03/17 12:35:47;;;;;;;3.67;2.90;;;8.20;81.10;;;;;;5072087;28;20297;-40
2021/03/17 12:38:14;;;;;;;8.95;2.80;;;8.10;82.00;;;;;;5071916;28;20577;-41
2021/03/17 12:40:41;;;;;;;3.47;2.78;;;8.10;83.20;;;;;;5071635;28;20218;-40
2021/03/17 12:43:08;;;;;;;4.93;3.50;;;8.20;82.50;;;;;;5072029;28;20241;-40
2021/03/17 12:45:44;;;;;;;3.70;3.17;;;8.20;82.90;;;;;;5071607;28;20270;-41
2021/03/17 12:48:11;;;;;;;6.00;2.67;;;8.20;81.80;;;;;;5071410;28;20760;-41
2021/03/17 12:50:39;;;;;;;3.60;2.50;;;8.00;81.60;;;;;;5071645;28;20591;-40
2021/03/17 12:53:07;;;;;;;3.13;2.45;;;7.80;81.40;;;;;;5071456;28;20214;-41
2021/03/17 12:55:34;;;;;;;3.47;2.45;;;7.70;81.80;;;;;;5071656;28;20235;-40
2021/03/17 12:58:01;;;;;;;2.58;2.25;;;7.80;82.10;;;;;;5071700;28;20246;-40
2021/03/17 13:00:30;;;;;;;2.45;2.22;;;7.80;81.00;;;;;;5071930;28;20211;-41
2021/03/17 13:02:58;;;;;;;2.28;1.80;;;7.90;80.30;;;;;;5071500;28;20623;-41
2021/03/17 13:05:25;;;;;;;2.85;2.00;;;7.90;80.10;;;;;;5071507;28;20765;-41
2021/03/17 13:07:52;;;;;;;2.35;2.15;;;7.90;79.00;;;;;;5071648;28;20208;-41
2021/03/17 13:10:24;;;;;;;4.90;2.13;;;7.90;78.50;;;;;;5071566;28;20211;-41
2021/03/17 13:12:51;;;;;;;3.47;2.65;;;8.00;78.00;;;;;;5071612;28;20637;-41